Bieber, California
Current Conditions -  °F | °C
As of 7:16 PM on Saturday 25 Oct 2014 (Local Time) from KAAT Reporting Station
Light Rain Light Rain  
Wind Chill: 38°   Ceiling: 3200
Heat Index: 43°   Visibility: 9mi
Dew Point: 40°   Wind: 9mph
Humidity: 89%   Direction: 230°SW
Pressure: 30.01"   Gusts: NA
Location:  41.12°N, 121.15°W
Report Text: KAAT 260216Z AUTO 23008KT 9SM -RA OVC032 06/04 A3001 RMK AO2 P0010 T00610044 $
Loading
Personal Weather Stations






























Interactive Weather Map
Tropical Storm Tracking
New forecast layout! Learn more

10-Day Weather Forecast

Advertisements
Track Severe Weather on mobile